createdAt,value
2023-05-13T00:00:33.598Z,15.24
2023-05-13T00:03:02.799Z,15.20
2023-05-13T00:05:30.854Z,15.16
2023-05-13T00:08:02.096Z,15.09
2023-05-13T00:10:30.025Z,15.07
2023-05-13T00:12:57.805Z,15.02
2023-05-13T00:15:25.498Z,14.98
2023-05-13T00:17:53.205Z,14.97
2023-05-13T00:20:22.678Z,14.90
2023-05-13T00:22:50.553Z,14.96
2023-05-13T00:25:18.278Z,14.85
2023-05-13T00:27:45.958Z,14.83
2023-05-13T00:30:13.761Z,14.83
2023-05-13T00:32:41.473Z,14.68
2023-05-13T00:35:09.980Z,14.72
2023-05-13T00:37:39.047Z,14.67
2023-05-13T00:40:09.030Z,14.57
2023-05-13T00:42:36.677Z,14.54
2023-05-13T00:45:04.772Z,14.48
2023-05-13T00:47:32.465Z,14.43
2023-05-13T00:50:00.187Z,14.42
2023-05-13T00:52:28.561Z,14.39
2023-05-13T00:54:57.527Z,14.35
2023-05-13T00:57:25.221Z,14.27
2023-05-13T00:59:53.472Z,14.31
2023-05-13T01:02:28.524Z,14.26
2023-05-13T01:05:04.133Z,14.20
2023-05-13T01:07:41.728Z,14.09
2023-05-13T01:10:16.619Z,14.08
2023-05-13T01:12:47.244Z,13.96
2023-05-13T01:15:18.293Z,14.05
2023-05-13T01:17:54.762Z,14.02
2023-05-13T01:20:24.306Z,13.89
2023-05-13T01:22:53.473Z,13.94
2023-05-13T01:25:21.316Z,13.98
2023-05-13T01:27:49.170Z,13.92
2023-05-13T01:30:17.629Z,13.91
2023-05-13T01:32:46.547Z,13.91
2023-05-13T01:35:16.362Z,13.82
2023-05-13T01:37:44.802Z,13.88
2023-05-13T01:40:30.981Z,13.85
2023-05-13T01:42:59.374Z,13.82
2023-05-13T01:45:29.160Z,13.81
2023-05-13T01:47:56.998Z,13.77
2023-05-13T01:50:24.944Z,13.72
2023-05-13T01:52:52.588Z,13.69
2023-05-13T01:55:21.835Z,13.71
2023-05-13T01:57:49.583Z,13.70
2023-05-13T02:00:18.031Z,13.56
2023-05-13T02:02:47.018Z,13.62
2023-05-13T02:05:14.795Z,13.59
2023-05-13T02:07:42.445Z,13.56
2023-05-13T02:10:11.111Z,13.59
2023-05-13T02:12:39.982Z,13.58
2023-05-13T02:15:08.636Z,13.54
2023-05-13T02:17:36.338Z,13.53
2023-05-13T02:20:04.479Z,13.50
2023-05-13T02:22:32.142Z,13.29
2023-05-13T02:24:59.842Z,13.48
2023-05-13T02:27:27.620Z,13.49
2023-05-13T02:29:56.606Z,13.40
2023-05-13T02:32:24.292Z,13.44
2023-05-13T02:34:51.981Z,13.45
2023-05-13T02:37:19.748Z,13.40
2023-05-13T02:39:47.400Z,13.34
2023-05-13T02:42:15.091Z,13.35
2023-05-13T02:44:42.803Z,13.36
2023-05-13T02:47:11.872Z,13.33
2023-05-13T02:49:39.523Z,13.25
2023-05-13T02:52:07.678Z,13.16
2023-05-13T02:54:35.396Z,13.16
2023-05-13T02:57:03.105Z,13.22
2023-05-13T02:59:31.041Z,13.17
2023-05-13T03:01:58.716Z,13.15
2023-05-13T03:04:27.782Z,12.94
2023-05-13T03:06:55.692Z,13.06
2023-05-13T03:09:23.501Z,13.12
2023-05-13T03:11:51.243Z,13.08
2023-05-13T03:14:18.954Z,13.03
2023-05-13T03:16:46.641Z,13.00
2023-05-13T03:19:14.631Z,12.99
2023-05-13T03:21:43.770Z,12.99
2023-05-13T03:24:11.440Z,12.88
2023-05-13T03:26:39.175Z,12.91
2023-05-13T03:29:07.012Z,12.92
2023-05-13T03:31:34.944Z,12.86
2023-05-13T03:34:02.744Z,12.89
2023-05-13T03:36:30.474Z,12.86
2023-05-13T03:38:59.631Z,12.89
2023-05-13T03:41:28.213Z,12.86
2023-05-13T03:43:55.873Z,12.78
2023-05-13T03:46:23.722Z,12.77
2023-05-13T03:48:51.423Z,12.77
2023-05-13T03:51:19.084Z,12.79
2023-05-13T03:53:46.769Z,12.77
2023-05-13T03:56:16.555Z,12.72
2023-05-13T03:58:44.303Z,12.73
2023-05-13T04:01:12.027Z,12.73
2023-05-13T04:03:39.777Z,12.71
2023-05-13T04:06:07.799Z,12.68
2023-05-13T04:08:35.560Z,12.66
2023-05-13T04:11:03.328Z,12.60
2023-05-13T04:13:35.708Z,12.63
2023-05-13T04:16:03.895Z,12.65
2023-05-13T04:18:32.512Z,12.63
2023-05-13T04:21:00.057Z,12.67
2023-05-13T04:23:27.815Z,12.69
2023-05-13T04:25:55.566Z,12.66
2023-05-13T04:28:23.203Z,12.61
2023-05-13T04:30:52.231Z,12.67
2023-05-13T04:33:19.917Z,12.68
2023-05-13T04:35:47.556Z,12.70
2023-05-13T04:38:15.646Z,12.72
2023-05-13T04:40:44.667Z,12.72
2023-05-13T04:43:12.797Z,12.74
2023-05-13T04:45:40.758Z,12.74
2023-05-13T04:48:09.856Z,12.80
2023-05-13T04:50:37.632Z,12.75
2023-05-13T04:53:05.777Z,12.84
2023-05-13T04:55:33.489Z,12.76
2023-05-13T04:58:01.109Z,12.78
2023-05-13T05:00:28.804Z,12.77
2023-05-13T05:02:56.722Z,12.89
2023-05-13T05:05:25.860Z,12.91
2023-05-13T05:07:53.514Z,12.95
2023-05-13T05:10:21.437Z,12.97
2023-05-13T05:12:49.475Z,12.88
2023-05-13T05:15:17.275Z,13.00
2023-05-13T05:17:45.673Z,12.87
2023-05-13T05:20:14.379Z,13.09
2023-05-13T05:22:43.515Z,13.13
2023-05-13T05:25:11.977Z,13.15
2023-05-13T05:27:40.093Z,13.26
2023-05-13T05:30:09.850Z,13.28
2023-05-13T05:32:37.943Z,13.21
2023-05-13T05:35:06.565Z,13.20
2023-05-13T05:37:34.407Z,13.25
2023-05-13T05:40:03.826Z,13.19
2023-05-13T05:42:31.576Z,13.30
2023-05-13T05:44:59.248Z,13.36
2023-05-13T05:47:27.001Z,13.42
2023-05-13T05:49:54.735Z,13.31
2023-05-13T05:52:22.456Z,13.42
2023-05-13T05:54:50.077Z,13.54
2023-05-13T05:57:19.562Z,13.60
2023-05-13T05:59:47.255Z,13.61
2023-05-13T06:02:15.127Z,13.70
2023-05-13T06:04:43.011Z,13.74
2023-05-13T06:07:10.801Z,13.78
2023-05-13T06:09:38.522Z,13.88
2023-05-13T06:12:06.787Z,13.99
2023-05-13T06:14:36.012Z,14.11
2023-05-13T06:17:03.809Z,14.19
2023-05-13T06:19:31.548Z,14.25
2023-05-13T06:22:00.122Z,14.30
2023-05-13T06:24:28.616Z,14.50
2023-05-13T06:26:56.531Z,14.64
2023-05-13T06:29:24.217Z,14.84
2023-05-13T06:31:53.260Z,14.99
2023-05-13T06:34:20.982Z,14.91
2023-05-13T06:36:48.780Z,14.98
2023-05-13T06:39:16.573Z,15.43
2023-05-13T06:41:44.226Z,15.62
2023-05-13T06:44:11.857Z,15.74
2023-05-13T06:46:39.618Z,15.90
2023-05-13T06:49:09.179Z,16.08
2023-05-13T06:51:36.974Z,16.10
2023-05-13T06:54:04.790Z,16.19
2023-05-13T06:56:32.731Z,16.28
2023-05-13T06:59:00.459Z,16.43
2023-05-13T07:01:28.336Z,16.60
2023-05-13T07:03:56.186Z,16.59
2023-05-13T07:06:25.311Z,16.66
2023-05-13T07:08:53.034Z,16.76
2023-05-13T07:11:21.198Z,16.96
2023-05-13T07:13:48.936Z,17.02
2023-05-13T07:16:16.598Z,17.07
2023-05-13T07:18:44.859Z,17.26
2023-05-13T07:21:12.576Z,17.43
2023-05-13T07:23:43.705Z,17.58
2023-05-13T07:26:12.150Z,17.76
2023-05-13T07:28:39.797Z,17.73
2023-05-13T07:31:07.719Z,18.02
2023-05-13T07:33:35.466Z,18.21
2023-05-13T07:36:03.156Z,18.13
2023-05-13T07:38:30.829Z,18.35
2023-05-13T07:40:59.827Z,18.59
2023-05-13T07:43:27.973Z,18.47
2023-05-13T07:45:55.645Z,18.49
2023-05-13T07:48:24.585Z,18.72
2023-05-13T07:50:52.488Z,18.92
2023-05-13T07:53:20.273Z,19.05
2023-05-13T07:55:48.053Z,19.16
2023-05-13T07:58:18.618Z,19.45
2023-05-13T08:00:46.371Z,19.44
2023-05-13T08:03:14.184Z,19.51
2023-05-13T08:05:41.932Z,19.66
2023-05-13T08:08:09.676Z,19.52
2023-05-13T08:10:37.449Z,19.73
2023-05-13T08:13:05.164Z,19.92
2023-05-13T08:15:34.346Z,20.24
2023-05-13T08:18:02.051Z,20.30
2023-05-13T08:20:30.607Z,20.62
2023-05-13T08:22:58.816Z,20.89
2023-05-13T08:25:26.500Z,21.01
2023-05-13T08:27:54.632Z,21.19
2023-05-13T08:30:22.657Z,20.95
2023-05-13T08:32:51.797Z,20.73
2023-05-13T08:35:19.694Z,20.65
2023-05-13T08:37:47.464Z,20.88
2023-05-13T08:40:15.420Z,20.85
2023-05-13T08:42:44.372Z,21.13
2023-05-13T08:45:14.148Z,20.77
2023-05-13T08:47:51.336Z,21.18
2023-05-13T08:50:21.689Z,21.50
2023-05-13T08:52:53.123Z,22.04
2023-05-13T08:55:21.826Z,22.45
2023-05-13T08:57:49.799Z,22.77
2023-05-13T09:00:19.984Z,23.05
2023-05-13T09:02:50.251Z,22.90
2023-05-13T09:05:20.268Z,22.92
2023-05-13T09:07:48.116Z,23.53
2023-05-13T09:10:16.595Z,23.97
2023-05-13T09:12:48.392Z,23.81
2023-05-13T09:15:17.460Z,23.71
2023-05-13T09:17:46.215Z,23.50
2023-05-13T09:20:15.561Z,23.42
2023-05-13T09:22:46.811Z,23.20
2023-05-13T09:25:14.929Z,23.01
2023-05-13T09:27:44.614Z,22.92
2023-05-13T09:30:12.881Z,22.98
2023-05-13T09:32:40.979Z,22.53
2023-05-13T09:35:16.597Z,22.40
2023-05-13T09:37:49.585Z,22.39
2023-05-13T09:40:18.735Z,22.40
2023-05-13T09:42:47.692Z,22.33
2023-05-13T09:45:17.376Z,22.25
2023-05-13T09:47:45.355Z,22.27
2023-05-13T09:50:13.422Z,22.42
2023-05-13T09:52:41.140Z,22.40
2023-05-13T09:55:11.291Z,22.56
2023-05-13T09:57:40.804Z,22.81
2023-05-13T10:00:17.964Z,23.10
2023-05-13T10:02:53.362Z,23.16
2023-05-13T10:05:21.103Z,23.07
2023-05-13T10:07:48.953Z,22.71
2023-05-13T10:10:18.264Z,22.45
2023-05-13T10:12:46.143Z,22.88
2023-05-13T10:15:14.099Z,22.97
2023-05-13T10:17:44.747Z,23.46
2023-05-13T10:20:13.836Z,23.43
2023-05-13T10:22:41.819Z,23.34
2023-05-13T10:25:11.480Z,23.39
2023-05-13T10:27:41.075Z,23.45
2023-05-13T10:30:10.605Z,23.86
2023-05-13T10:32:40.200Z,23.52
2023-05-13T10:35:13.408Z,23.18
2023-05-13T10:37:56.402Z,23.55
2023-05-13T10:40:39.935Z,23.96
2023-05-13T10:43:18.099Z,23.75
2023-05-13T10:45:48.115Z,24.00
2023-05-13T10:48:17.876Z,24.12
2023-05-13T10:50:53.897Z,23.91
2023-05-13T10:53:24.792Z,23.81
2023-05-13T10:55:57.590Z,24.21
2023-05-13T10:58:32.713Z,24.44
2023-05-13T11:01:19.140Z,24.48
2023-05-13T11:03:54.583Z,24.19
2023-05-13T11:06:23.610Z,24.51
2023-05-13T11:08:54.423Z,24.83
2023-05-13T11:11:33.115Z,24.79
2023-05-13T11:14:09.619Z,25.00
2023-05-13T11:16:38.104Z,25.32
2023-05-13T11:19:11.540Z,25.57
2023-05-13T11:21:41.360Z,25.81
2023-05-13T11:24:09.480Z,25.91
2023-05-13T11:26:46.996Z,25.93
2023-05-13T11:29:16.496Z,25.82
2023-05-13T11:31:46.501Z,25.27
2023-05-13T11:34:16.140Z,25.75
2023-05-13T11:36:47.194Z,26.05
2023-05-13T11:39:17.119Z,26.20
2023-05-13T11:41:47.352Z,26.55
2023-05-13T11:44:17.551Z,26.56
2023-05-13T11:46:53.376Z,26.56
2023-05-13T11:49:35.066Z,26.44
2023-05-13T11:52:03.718Z,26.61
2023-05-13T11:54:31.383Z,26.72
2023-05-13T11:56:59.110Z,27.04
2023-05-13T11:59:35.866Z,27.33
2023-05-13T12:02:09.559Z,27.27
2023-05-13T12:04:37.303Z,27.34
2023-05-13T12:07:05.214Z,27.38
2023-05-13T12:09:32.872Z,27.44
2023-05-13T12:12:00.712Z,27.76
2023-05-13T12:14:30.366Z,27.94
2023-05-13T12:16:58.768Z,27.82
2023-05-13T12:19:26.485Z,27.89
2023-05-13T12:21:54.139Z,27.58
2023-05-13T12:24:22.706Z,27.52
2023-05-13T12:26:50.603Z,27.80
2023-05-13T12:29:18.339Z,27.73
2023-05-13T12:32:06.729Z,27.79
2023-05-13T12:34:35.731Z,27.91
2023-05-13T12:37:13.731Z,27.48
2023-05-13T12:39:42.746Z,27.92
2023-05-13T12:42:17.557Z,28.22
2023-05-13T12:44:46.718Z,28.38
2023-05-13T12:47:19.881Z,28.90
2023-05-13T12:49:54.069Z,28.68
2023-05-13T12:52:22.389Z,29.05
2023-05-13T12:54:50.106Z,29.56
2023-05-13T12:57:18.327Z,29.37
2023-05-13T12:59:46.776Z,29.34
2023-05-13T13:02:15.955Z,29.98
2023-05-13T13:04:43.557Z,29.67
2023-05-13T13:07:14.488Z,30.35
2023-05-13T13:09:42.297Z,30.98
2023-05-13T13:12:09.757Z,31.25
2023-05-13T13:14:37.398Z,31.65
2023-05-13T13:17:04.912Z,31.89
2023-05-13T13:19:33.962Z,32.49
2023-05-13T13:22:01.635Z,32.72
2023-05-13T13:24:29.360Z,32.91
2023-05-13T13:26:58.386Z,32.94
2023-05-13T13:29:26.200Z,32.99
2023-05-13T13:31:53.836Z,32.97
2023-05-13T13:34:21.439Z,33.17
2023-05-13T13:36:50.705Z,33.23
2023-05-13T13:39:18.532Z,32.80
2023-05-13T13:41:47.229Z,32.92
2023-05-13T13:44:15.088Z,33.00
2023-05-13T13:46:42.997Z,32.79
2023-05-13T13:49:22.792Z,33.30
2023-05-13T13:51:52.972Z,32.93
2023-05-13T13:54:20.969Z,33.25
2023-05-13T13:56:49.303Z,31.73
2023-05-13T13:59:19.118Z,32.19
2023-05-13T14:01:47.057Z,31.40
2023-05-13T14:04:16.410Z,31.79
2023-05-13T14:06:46.953Z,31.09
2023-05-13T14:09:16.180Z,30.96
2023-05-13T14:11:43.974Z,31.07
2023-05-13T14:14:11.673Z,31.68
2023-05-13T14:16:39.219Z,31.69
2023-05-13T14:19:07.095Z,31.71
2023-05-13T14:21:34.898Z,31.63
2023-05-13T14:24:02.522Z,30.87
2023-05-13T14:26:31.852Z,31.03
2023-05-13T14:28:59.548Z,31.13
2023-05-13T14:31:27.209Z,30.97
2023-05-13T14:33:54.882Z,29.82
2023-05-13T14:36:22.917Z,28.98
2023-05-13T14:38:50.739Z,29.39
2023-05-13T14:41:19.988Z,29.42
2023-05-13T14:43:49.165Z,29.83
2023-05-13T14:46:18.270Z,30.35
2023-05-13T14:48:46.001Z,29.91
2023-05-13T14:51:13.491Z,29.44
2023-05-13T14:53:41.252Z,29.84
2023-05-13T14:56:08.867Z,30.09
2023-05-13T14:58:36.849Z,30.44
2023-05-13T15:01:06.137Z,29.85
2023-05-13T15:03:33.894Z,30.08
2023-05-13T15:06:01.469Z,30.02
2023-05-13T15:08:28.976Z,30.09
2023-05-13T15:10:56.535Z,29.69
2023-05-13T15:13:24.737Z,29.12
2023-05-13T15:15:52.428Z,28.92
2023-05-13T15:18:21.553Z,28.70
2023-05-13T15:20:49.304Z,28.61
2023-05-13T15:23:17.082Z,28.66
2023-05-13T15:25:44.875Z,28.62
2023-05-13T15:28:12.567Z,28.88
